Time;durP1;ratioP1;P1;durP2;ratioP2;P2;SDS_P1;SDS_P2;PMS_P1;PMS_P2;Temp;Humidity;BMP_temperature;BMP_pressure;BME280_temperature;BME280_humidity;BME280_pressure;Samples;Min_cycle;Max_cycle;Signal;HPM_P1;HPM_P2
2022/10/22 00:00:13;;;;;;;17.03;10.00;;;;;;;;;;5095406;28;20281;-69
2022/10/22 00:02:40;;;;;;;24.03;12.30;;;;;;;;;;5095667;28;20285;-68
2022/10/22 00:05:06;;;;;;;14.90;10.00;;;;;;;;;;5095452;28;20646;-69
2022/10/22 00:07:32;;;;;;;19.80;10.73;;;;;;;;;;5095546;28;20278;-69
2022/10/22 00:09:58;;;;;;;16.93;11.17;;;;;;;;;;5095480;28;20278;-69
2022/10/22 00:12:25;;;;;;;19.13;11.93;;;;;;;;;;5095053;28;20369;-69
2022/10/22 00:14:51;;;;;;;18.60;10.93;;;;;;;;;;5095543;28;20637;-69
2022/10/22 00:17:17;;;;;;;19.13;11.97;;;;;;;;;;5094717;28;20781;-69
2022/10/22 00:19:43;;;;;;;20.67;12.00;;;;;;;;;;5094908;28;20641;-69
2022/10/22 00:22:09;;;;;;;19.07;11.50;;;;;;;;;;5094978;28;20360;-69
2022/10/22 00:24:36;;;;;;;19.97;12.00;;;;;;;;;;5095388;28;20358;-69
2022/10/22 00:27:03;;;;;;;21.80;12.43;;;;;;;;;;5094722;28;20286;-69
2022/10/22 00:29:29;;;;;;;22.50;13.03;;;;;;;;;;5094517;28;20706;-69
2022/10/22 00:31:55;;;;;;;17.67;10.63;;;;;;;;;;5095220;28;20286;-68
2022/10/22 00:34:21;;;;;;;17.47;11.00;;;;;;;;;;5094729;28;20278;-69
2022/10/22 00:36:48;;;;;;;22.97;12.03;;;;;;;;;;5095082;28;20662;-69
2022/10/22 00:39:15;;;;;;;22.47;11.43;;;;;;;;;;5093376;28;20786;-69
2022/10/22 00:41:45;;;;;;;24.83;12.37;;;;;;;;;;5095101;28;20278;-69
2022/10/22 00:44:29;;;;;;;23.30;11.80;;;;;;;;;;5094606;28;20274;-69
2022/10/22 00:46:55;;;;;;;19.37;10.57;;;;;;;;;;5094906;28;20654;-68
2022/10/22 00:49:21;;;;;;;21.80;11.77;;;;;;;;;;5094424;28;20285;-68
2022/10/22 00:51:47;;;;;;;20.67;10.73;;;;;;;;;;5094680;28;20650;-69
2022/10/22 00:54:13;;;;;;;19.07;10.83;;;;;;;;;;5094325;28;20297;-69
2022/10/22 00:56:40;;;;;;;16.87;10.73;;;;;;;;;;5094386;28;20313;-69
2022/10/22 00:59:06;;;;;;;23.57;10.63;;;;;;;;;;5094480;28;20298;-69
2022/10/22 01:01:32;;;;;;;18.93;11.07;;;;;;;;;;5094167;28;20361;-68
2022/10/22 01:03:58;;;;;;;20.60;11.23;;;;;;;;;;5094593;28;20678;-68
2022/10/22 01:06:27;;;;;;;24.50;12.10;;;;;;;;;;5094148;28;20369;-68
2022/10/22 01:08:53;;;;;;;19.40;11.13;;;;;;;;;;5094336;28;20289;-68
2022/10/22 01:11:19;;;;;;;20.00;12.73;;;;;;;;;;5094120;28;20364;-69
2022/10/22 01:14:04;;;;;;;20.43;10.90;;;;;;;;;;5094336;28;20646;-70
2022/10/22 01:16:33;;;;;;;24.25;12.45;;;;;;;;;;5092800;28;20369;-70
2022/10/22 01:19:08;;;;;;;19.57;12.50;;;;;;;;;;5094040;28;20530;-70
2022/10/22 01:21:34;;;;;;;;;;;;;;;;;;5094275;28;20282;-70
2022/10/22 01:24:06;;;;;;;27.60;12.07;;;;;;;;;;5094070;28;20324;-67
2022/10/22 01:26:40;;;;;;;21.57;11.93;;;;;;;;;;5093375;28;20574;-67
2022/10/22 01:29:18;;;;;;;17.33;10.90;;;;;;;;;;5092836;28;20646;-67
2022/10/22 01:31:51;;;;;;;17.97;10.40;;;;;;;;;;5093918;28;20343;-68
2022/10/22 01:34:18;;;;;;;22.10;11.77;;;;;;;;;;5093566;28;20595;-68
2022/10/22 01:36:45;;;;;;;17.97;10.50;;;;;;;;;;5093736;28;20338;-67
2022/10/22 01:39:12;;;;;;;21.60;11.93;;;;;;;;;;5092833;28;20352;-67
2022/10/22 01:41:39;;;;;;;19.23;11.57;;;;;;;;;;5093375;28;20278;-67
2022/10/22 01:44:05;;;;;;;23.40;11.27;;;;;;;;;;5093319;28;20661;-67
2022/10/22 01:46:31;;;;;;;18.27;10.00;;;;;;;;;;5092258;28;20282;-67
2022/10/22 01:49:05;;;;;;;18.13;10.30;;;;;;;;;;5092381;28;20274;-67
2022/10/22 01:51:38;;;;;;;18.83;10.03;;;;;;;;;;5093029;28;20634;-67
2022/10/22 01:54:07;;;;;;;17.27;9.93;;;;;;;;;;5093553;28;20278;-67
2022/10/22 01:56:42;;;;;;;18.07;9.07;;;;;;;;;;5093073;28;20339;-67
2022/10/22 01:59:08;;;;;;;18.00;10.13;;;;;;;;;;5093303;28;20370;-67
2022/10/22 02:01:37;;;;;;;14.60;9.63;;;;;;;;;;5093074;28;20071;-68
2022/10/22 02:04:22;;;;;;;16.83;9.10;;;;;;;;;;5093295;28;20283;-67
2022/10/22 02:06:51;;;;;;;17.42;9.40;;;;;;;;;;5093340;28;20282;-67
2022/10/22 02:09:18;;;;;;;18.03;9.90;;;;;;;;;;5093199;28;20044;-67
2022/10/22 02:11:44;;;;;;;17.57;10.10;;;;;;;;;;5092338;28;20294;-68
2022/10/22 02:14:11;;;;;;;18.77;9.93;;;;;;;;;;5093045;28;20282;-67
2022/10/22 02:16:40;;;;;;;20.40;10.17;;;;;;;;;;5092812;28;20309;-68
2022/10/22 02:19:09;;;;;;;16.67;8.73;;;;;;;;;;5092887;28;20398;-67
2022/10/22 02:21:35;;;;;;;18.30;10.13;;;;;;;;;;5092752;28;20296;-67
2022/10/22 02:24:01;;;;;;;14.10;8.47;;;;;;;;;;5093064;28;20769;-67
2022/10/22 02:26:32;;;;;;;19.20;10.33;;;;;;;;;;5091649;28;20285;-68
2022/10/22 02:29:18;;;;;;;16.43;9.77;;;;;;;;;;5093271;28;20278;-67
2022/10/22 02:31:46;;;;;;;16.60;9.87;;;;;;;;;;5092901;28;20336;-67
2022/10/22 02:34:15;;;;;;;23.73;9.83;;;;;;;;;;5093009;28;20286;-67
2022/10/22 02:36:42;;;;;;;17.13;8.53;;;;;;;;;;5092423;28;20282;-68
2022/10/22 02:39:09;;;;;;;16.97;9.53;;;;;;;;;;5092805;28;20308;-67
2022/10/22 02:41:36;;;;;;;21.40;11.00;;;;;;;;;;5092669;28;20286;-68
2022/10/22 02:44:06;;;;;;;17.97;9.23;;;;;;;;;;5092973;28;20278;-67
2022/10/22 02:46:32;;;;;;;19.73;10.23;;;;;;;;;;5091439;28;20314;-68
2022/10/22 02:48:58;;;;;;;18.93;10.60;;;;;;;;;;5093092;28;20335;-67
2022/10/22 02:51:24;;;;;;;18.07;9.83;;;;;;;;;;5095772;28;20283;-68
2022/10/22 02:53:50;;;;;;;20.17;10.43;;;;;;;;;;5097196;28;20282;-67
2022/10/22 02:56:17;;;;;;;19.60;9.80;;;;;;;;;;5096897;28;20680;-68
2022/10/22 02:58:43;;;;;;;16.03;9.63;;;;;;;;;;5096426;28;21267;-67
2022/10/22 03:01:09;;;;;;;22.03;10.37;;;;;;;;;;5095693;28;20622;-67
2022/10/22 03:03:35;;;;;;;17.47;10.17;;;;;;;;;;5096560;28;20314;-67
2022/10/22 03:06:01;;;;;;;18.80;10.30;;;;;;;;;;5096679;28;20289;-67
2022/10/22 03:08:27;;;;;;;19.90;9.13;;;;;;;;;;5096494;28;20281;-68
2022/10/22 03:10:53;;;;;;;17.60;9.00;;;;;;;;;;5096970;28;20278;-67
2022/10/22 03:13:19;;;;;;;22.57;9.70;;;;;;;;;;5096604;28;20274;-67
2022/10/22 03:15:47;;;;;;;18.40;9.60;;;;;;;;;;5096282;28;20288;-68
2022/10/22 03:18:13;;;;;;;20.07;9.63;;;;;;;;;;5096473;28;20525;-68
2022/10/22 03:20:39;;;;;;;19.90;8.90;;;;;;;;;;5095752;28;20286;-69
2022/10/22 03:23:05;;;;;;;16.90;9.30;;;;;;;;;;5096440;28;20343;-68
2022/10/22 03:25:33;;;;;;;18.77;9.07;;;;;;;;;;5094625;28;20796;-69
2022/10/22 03:28:02;;;;;;;17.47;9.30;;;;;;;;;;5096317;28;20282;-69
2022/10/22 03:30:28;;;;;;;13.73;8.63;;;;;;;;;;5096048;28;20343;-69
2022/10/22 03:32:54;;;;;;;21.53;9.90;;;;;;;;;;5096451;28;20278;-68
2022/10/22 03:35:20;;;;;;;17.40;8.93;;;;;;;;;;5095376;28;20286;-69
2022/10/22 03:37:46;;;;;;;16.97;9.13;;;;;;;;;;5095762;28;20294;-69
2022/10/22 03:40:13;;;;;;;19.67;9.00;;;;;;;;;;5094904;28;20282;-68
2022/10/22 03:42:40;;;;;;;14.77;8.20;;;;;;;;;;5095763;28;20343;-68
2022/10/22 03:45:06;;;;;;;18.40;8.60;;;;;;;;;;5094851;28;20282;-69
2022/10/22 03:47:32;;;;;;;18.80;9.20;;;;;;;;;;5095657;28;20403;-69
2022/10/22 03:49:58;;;;;;;25.30;9.30;;;;;;;;;;5095893;28;20281;-68
2022/10/22 03:52:24;;;;;;;19.23;9.77;;;;;;;;;;5095610;28;20282;-69
2022/10/22 03:54:50;;;;;;;14.20;8.00;;;;;;;;;;5095520;28;20297;-69
2022/10/22 03:57:17;;;;;;;16.27;8.43;;;;;;;;;;5095704;28;20357;-69
2022/10/22 03:59:44;;;;;;;17.47;8.33;;;;;;;;;;5095436;28;20278;-69
2022/10/22 04:02:10;;;;;;;17.07;8.73;;;;;;;;;;5094411;28;20765;-69
2022/10/22 04:04:37;;;;;;;16.07;8.37;;;;;;;;;;5095386;28;20274;-69
2022/10/22 04:07:03;;;;;;;17.27;9.33;;;;;;;;;;5095578;28;20320;-69
2022/10/22 04:09:34;;;;;;;16.03;8.23;;;;;;;;;;5095535;28;20340;-69
2022/10/22 04:12:00;;;;;;;22.00;8.53;;;;;;;;;;5095488;28;20274;-69
2022/10/22 04:14:26;;;;;;;17.17;7.73;;;;;;;;;;5094260;28;20274;-69
2022/10/22 04:16:52;;;;;;;19.77;9.20;;;;;;;;;;5094875;28;21127;-69
2022/10/22 04:19:18;;;;;;;20.33;8.40;;;;;;;;;;5095253;28;20307;-69
2022/10/22 04:21:44;;;;;;;15.70;8.07;;;;;;;;;;5095014;28;20323;-69
2022/10/22 04:24:10;;;;;;;17.53;8.50;;;;;;;;;;5093738;28;20781;-69
2022/10/22 04:26:36;;;;;;;17.23;7.40;;;;;;;;;;5094909;28;20825;-69
2022/10/22 04:29:03;;;;;;;16.83;8.27;;;;;;;;;;5093977;28;20775;-69
2022/10/22 04:31:29;;;;;;;14.57;7.50;;;;;;;;;;5095266;28;20274;-69
2022/10/22 04:33:55;;;;;;;18.40;7.67;;;;;;;;;;5094807;28;20320;-69
2022/10/22 04:36:22;;;;;;;17.60;8.50;;;;;;;;;;5095019;28;20281;-68
2022/10/22 04:38:51;;;;;;;17.97;7.57;;;;;;;;;;5094703;28;20310;-69
2022/10/22 04:41:18;;;;;;;14.13;7.40;;;;;;;;;;5094896;28;20282;-69
2022/10/22 04:43:45;;;;;;;15.97;7.80;;;;;;;;;;5093678;28;20292;-69
2022/10/22 04:46:12;;;;;;;15.23;7.17;;;;;;;;;;5094831;28;20274;-69
2022/10/22 04:48:39;;;;;;;18.43;8.23;;;;;;;;;;5094579;28;20331;-69
2022/10/22 04:51:06;;;;;;;17.33;7.07;;;;;;;;;;5094953;28;20336;-69
2022/10/22 04:53:34;;;;;;;11.70;6.50;;;;;;;;;;5093522;28;20355;-69
2022/10/22 04:56:07;;;;;;;16.07;6.43;;;;;;;;;;5094404;28;20328;-68
2022/10/22 04:58:33;;;;;;;15.60;7.40;;;;;;;;;;5094474;28;20289;-69
2022/10/22 05:00:59;;;;;;;17.40;7.77;;;;;;;;;;5094285;28;20758;-68
2022/10/22 05:03:25;;;;;;;17.53;8.53;;;;;;;;;;5094518;28;20739;-68
2022/10/22 05:05:51;;;;;;;15.83;7.60;;;;;;;;;;5093287;28;20282;-69
2022/10/22 05:08:17;;;;;;;18.70;7.80;;;;;;;;;;5094439;28;20322;-69
2022/10/22 05:10:43;;;;;;;19.87;7.53;;;;;;;;;;5094059;28;20320;-69
2022/10/22 05:13:09;;;;;;;18.37;7.10;;;;;;;;;;5094293;28;20286;-69
2022/10/22 05:15:35;;;;;;;17.23;8.17;;;;;;;;;;5094212;28;20282;-69
2022/10/22 05:18:01;;;;;;;16.23;7.20;;;;;;;;;;5092669;28;20301;-68
2022/10/22 05:20:28;;;;;;;16.07;7.93;;;;;;;;;;5093783;28;20286;-69
2022/10/22 05:22:54;;;;;;;16.60;7.90;;;;;;;;;;5093820;28;20317;-69
2022/10/22 05:25:20;;;;;;;18.07;7.23;;;;;;;;;;5094069;28;20278;-68
2022/10/22 05:27:49;;;;;;;19.13;7.73;;;;;;;;;;5093730;28;20274;-69
2022/10/22 05:30:15;;;;;;;19.43;7.23;;;;;;;;;;5093950;28;20274;-69
2022/10/22 05:32:41;;;;;;;15.87;7.40;;;;;;;;;;5093713;28;20278;-74
2022/10/22 05:35:07;;;;;;;20.33;7.00;;;;;;;;;;5092374;28;20742;-69
2022/10/22 05:37:33;;;;;;;15.97;7.57;;;;;;;;;;5093736;28;22177;-68
2022/10/22 05:39:59;;;;;;;14.07;7.37;;;;;;;;;;5093537;28;20351;-69
2022/10/22 05:42:26;;;;;;;17.90;7.63;;;;;;;;;;5093993;28;20648;-69
2022/10/22 05:44:52;;;;;;;14.60;7.20;;;;;;;;;;5093481;28;20284;-69
2022/10/22 05:47:18;;;;;;;19.30;8.10;;;;;;;;;;5093645;28;20328;-69
2022/10/22 05:49:44;;;;;;;17.67;7.30;;;;;;;;;;5093306;28;20279;-72
2022/10/22 05:52:11;;;;;;;18.70;7.67;;;;;;;;;;5093572;28;20284;-69
2022/10/22 05:54:37;;;;;;;15.73;8.07;;;;;;;;;;5093657;28;20622;-68
2022/10/22 05:57:03;;;;;;;20.60;8.90;;;;;;;;;;5093207;28;20274;-69
2022/10/22 05:59:29;;;;;;;17.10;7.60;;;;;;;;;;5093502;28;20400;-69
2022/10/22 06:01:55;;;;;;;18.03;8.10;;;;;;;;;;5093138;28;20285;-69
2022/10/22 06:04:21;;;;;;;20.60;7.73;;;;;;;;;;5093418;28;20286;-69
2022/10/22 06:06:49;;;;;;;16.93;8.47;;;;;;;;;;5093085;28;20350;-69
2022/10/22 06:09:15;;;;;;;19.30;8.20;;;;;;;;;;5093286;28;20278;-69
2022/10/22 06:11:41;;;;;;;14.23;7.33;;;;;;;;;;5093149;28;20278;-68
2022/10/22 06:14:08;;;;;;;14.87;8.27;;;;;;;;;;5092926;28;20282;-69
2022/10/22 06:16:34;;;;;;;17.60;7.60;;;;;;;;;;5092949;28;20758;-68
2022/10/22 06:19:01;;;;;;;17.50;8.00;;;;;;;;;;5092719;28;20306;-69
2022/10/22 06:21:27;;;;;;;16.70;7.87;;;;;;;;;;5093044;28;20282;-68
2022/10/22 06:23:55;;;;;;;24.53;8.07;;;;;;;;;;5091560;28;20286;-69
2022/10/22 06:26:21;;;;;;;14.97;7.63;;;;;;;;;;5092734;28;20361;-68
2022/10/22 06:28:47;;;;;;;16.70;7.27;;;;;;;;;;5092948;28;20327;-72
2022/10/22 06:31:13;;;;;;;13.67;7.33;;;;;;;;;;5093018;28;20361;-68
2022/10/22 06:33:42;;;;;;;12.50;7.60;;;;;;;;;;5093160;28;20289;-68
2022/10/22 06:36:12;;;;;;;18.33;7.73;;;;;;;;;;5092711;28;20278;-69
2022/10/22 06:38:39;;;;;;;18.07;8.40;;;;;;;;;;5093103;28;20294;-69
2022/10/22 06:41:06;;;;;;;17.40;7.73;;;;;;;;;;5092746;28;20278;-69
2022/10/22 06:43:32;;;;;;;13.80;6.70;;;;;;;;;;5093138;28;20365;-69
2022/10/22 06:45:59;;;;;;;20.57;8.27;;;;;;;;;;5092708;28;20289;-69
2022/10/22 06:48:26;;;;;;;15.53;7.20;;;;;;;;;;5092897;28;20274;-69
2022/10/22 06:50:52;;;;;;;16.63;8.00;;;;;;;;;;5092336;28;20854;-69
2022/10/22 06:53:18;;;;;;;16.23;7.63;;;;;;;;;;5092875;28;20296;-68
2022/10/22 06:55:44;;;;;;;17.27;7.63;;;;;;;;;;5092874;28;20286;-68
2022/10/22 06:58:10;;;;;;;19.07;7.90;;;;;;;;;;5092511;28;20336;-69
2022/10/22 07:00:36;;;;;;;15.27;7.67;;;;;;;;;;5092674;28;20290;-68
2022/10/22 07:03:02;;;;;;;19.57;8.90;;;;;;;;;;5092562;28;20278;-69
2022/10/22 07:05:28;;;;;;;17.83;7.73;;;;;;;;;;5092865;28;20375;-68
2022/10/22 07:07:54;;;;;;;21.13;7.87;;;;;;;;;;5092461;28;20270;-69
2022/10/22 07:10:20;;;;;;;22.73;7.77;;;;;;;;;;5092673;28;20297;-69
2022/10/22 07:12:46;;;;;;;18.67;8.40;;;;;;;;;;5092686;28;20282;-69
2022/10/22 07:15:12;;;;;;;19.03;8.40;;;;;;;;;;5092498;28;20629;-69
2022/10/22 07:17:39;;;;;;;18.20;8.73;;;;;;;;;;5091637;28;20306;-69
2022/10/22 07:20:05;;;;;;;20.50;8.40;;;;;;;;;;5092358;28;20294;-69
2022/10/22 07:22:31;;;;;;;20.23;8.07;;;;;;;;;;5092622;28;20363;-69
2022/10/22 07:24:57;;;;;;;17.97;7.27;;;;;;;;;;5092410;28;20374;-69
2022/10/22 07:27:23;;;;;;;19.20;8.80;;;;;;;;;;5092615;28;20684;-68
2022/10/22 07:29:49;;;;;;;15.77;7.17;;;;;;;;;;5092636;28;20317;-68
2022/10/22 07:32:16;;;;;;;16.53;7.47;;;;;;;;;;5091082;28;20343;-68
2022/10/22 07:34:42;;;;;;;16.23;7.83;;;;;;;;;;5092177;28;20796;-68
2022/10/22 07:37:08;;;;;;;15.77;7.87;;;;;;;;;;5093177;28;20743;-68
2022/10/22 07:39:34;;;;;;;15.97;7.83;;;;;;;;;;5096381;28;20298;-69
2022/10/22 07:42:00;;;;;;;14.30;7.60;;;;;;;;;;5095923;28;20627;-69
2022/10/22 07:44:26;;;;;;;20.70;8.00;;;;;;;;;;5096384;28;20748;-69
2022/10/22 07:46:52;;;;;;;18.60;7.73;;;;;;;;;;5096198;28;20044;-74
2022/10/22 07:49:18;;;;;;;18.60;7.53;;;;;;;;;;5095715;28;20317;-70
2022/10/22 07:51:44;;;;;;;14.27;7.43;;;;;;;;;;5095937;28;20293;-70
2022/10/22 07:54:10;;;;;;;21.53;7.63;;;;;;;;;;5095636;28;20286;-70
2022/10/22 07:56:36;;;;;;;16.40;7.83;;;;;;;;;;5095919;28;20293;-70
2022/10/22 07:59:02;;;;;;;20.17;7.50;;;;;;;;;;5077366;28;20305;-70
2022/10/22 08:01:28;;;;;;;17.00;7.20;;;;;;;;;;5095700;28;20286;-70
2022/10/22 08:03:54;;;;;;;16.50;7.53;;;;;;;;;;5094592;28;20293;-70
2022/10/22 08:06:20;;;;;;;15.00;6.37;;;13.80;99.90;;;;;;5095382;28;20293;-70
2022/10/22 08:08:46;;;;;;;16.43;6.87;;;13.80;99.90;;;;;;5095630;28;20278;-70
2022/10/22 08:11:12;;;;;;;14.77;6.23;;;13.90;99.90;;;;;;5095317;28;20036;-70
2022/10/22 08:13:38;;;;;;;16.23;7.07;;;13.90;99.90;;;;;;5095588;28;20048;-70
2022/10/22 08:16:04;;;;;;;17.80;6.57;;;13.90;99.90;;;;;;5093946;28;20127;-70
2022/10/22 08:18:29;;;;;;;16.20;6.43;;;13.90;99.90;;;;;;5093748;28;20605;-71
2022/10/22 08:20:56;;;;;;;15.73;7.10;;;14.00;99.90;;;;;;5094733;28;20059;-70
2022/10/22 08:23:22;;;;;;;18.57;6.33;;;14.00;99.90;;;;;;5094683;28;20050;-70
2022/10/22 08:25:47;;;;;;;13.93;6.97;;;14.10;99.90;;;;;;5094743;28;20274;-70
2022/10/22 08:28:13;;;;;;;15.00;6.13;;;14.10;99.90;;;;;;5095270;28;20541;-70
2022/10/22 08:30:40;;;;;;;13.70;5.97;;;14.20;99.90;;;;;;5094192;28;20525;-69
2022/10/22 08:33:05;;;;;;;14.80;5.53;;;14.20;99.90;;;;;;5094849;28;20052;-71
2022/10/22 08:35:31;;;;;;;13.90;5.90;;;;;;;;;;5095108;28;20047;-70
2022/10/22 08:37:58;;;;;;;15.30;5.80;;;;;;;;;;5094927;28;20086;-71
2022/10/22 08:40:34;;;;;;;12.07;5.90;;;;;;;;;;5094870;28;20044;-71
2022/10/22 08:43:06;;;;;;;17.10;6.03;;;;;;;;;;5093960;28;20483;-70
2022/10/22 08:45:40;;;;;;;13.57;5.17;;;;;;;;;;5094895;28;20044;-70
2022/10/22 08:48:13;;;;;;;13.30;5.90;;;14.40;99.90;;;;;;5094468;28;20048;-70
2022/10/22 08:50:46;;;;;;;17.00;5.77;;;14.40;99.90;;;;;;5094872;28;20048;-70
2022/10/22 08:53:17;;;;;;;22.10;5.13;;;;;;;;;;5094943;28;20047;-71
2022/10/22 08:55:43;;;;;;;15.73;5.63;;;;;;;;;;5094455;28;20488;-70
2022/10/22 08:58:37;;;;;;;14.73;5.37;;;14.70;99.90;;;;;;5093853;28;20036;-70
2022/10/22 09:01:10;;;;;;;12.07;4.77;;;;;;;;;;5093832;28;20051;-70
2022/10/22 09:03:54;;;;;;;13.37;5.60;;;;;;;;;;5094700;28;20052;-70
2022/10/22 09:06:25;;;;;;;15.53;4.87;;;;;;;;;;5094267;28;20109;-69
2022/10/22 09:08:51;;;;;;;17.70;5.23;;;;;;;;;;5094420;28;20047;-70
2022/10/22 09:11:20;;;;;;;12.77;4.70;;;;;;;;;;5094163;28;20044;-71
2022/10/22 09:13:46;;;;;;;16.27;5.07;;;;;;;;;;5094376;28;20087;-71
2022/10/22 09:16:18;;;;;;;13.90;5.23;;;;;;;;;;5094033;28;20044;-72
2022/10/22 09:18:44;;;;;;;16.17;5.50;;;;;;;;;;5093009;28;20060;-72
2022/10/22 09:21:10;;;;;;;11.87;5.03;;;;;;;;;;5094016;28;20541;-70
2022/10/22 09:23:49;;;;;;;13.73;4.93;;;;;;;;;;5127303;27;20411;-71
2022/10/22 09:26:15;;;;;;;18.67;5.03;;;;;;;;;;5093994;28;20052;-71
2022/10/22 09:28:42;;;;;;;15.57;5.00;;;;;;;;;;5094045;28;20403;-72
2022/10/22 09:31:12;;;;;;;15.03;4.20;;;;;;;;;;5094030;28;20106;-68
2022/10/22 09:33:38;;;;;;;12.77;4.50;;;;;;;;;;5093813;28;20500;-72
2022/10/22 09:36:06;;;;;;;13.27;5.17;;;;;;;;;;5094003;28;20044;-68
2022/10/22 09:38:52;;;;;;;16.53;4.70;;;;;;;;;;5093502;28;20104;-70
2022/10/22 09:41:19;;;;;;;15.40;4.47;;;;;;;;;;5093424;28;20056;-71
2022/10/22 09:43:48;;;;;;;13.23;4.60;;;;;;;;;;5093633;28;20051;-70
2022/10/22 09:46:19;;;;;;;16.23;4.90;;;;;;;;;;5093450;28;20044;-71
2022/10/22 09:48:57;;;;;;;16.73;5.17;;;;;;;;;;5092464;28;20048;-70
2022/10/22 09:51:24;;;;;;;13.20;4.37;;;;;;;;;;5093485;28;20047;-72
2022/10/22 09:54:01;;;;;;;16.73;5.50;;;;;;;;;;5093755;28;20056;-70
2022/10/22 09:56:34;;;;;;;12.53;4.57;;;;;;;;;;5092457;28;20399;-70
2022/10/22 09:59:00;;;;;;;14.77;5.37;;;;;;;;;;5093458;28;20048;-71
2022/10/22 10:01:28;;;;;;;17.17;4.47;;;;;;;;;;5092797;28;20048;-72
2022/10/22 10:04:01;;;;;;;15.07;4.60;;;;;;;;;;5093514;28;20051;-71
2022/10/22 10:06:31;;;;;;;12.33;4.10;;;;;;;;;;5093220;28;20097;-72
2022/10/22 10:09:01;;;;;;;22.60;4.93;;;;;;;;;;5093363;28;20386;-70
2022/10/22 10:11:28;;;;;;;17.87;5.53;;;;;;;;;;5093239;28;20526;-71
2022/10/22 10:13:55;;;;;;;16.50;5.33;;;;;;;;;;5092277;28;20048;-70
2022/10/22 10:16:28;;;;;;;16.53;4.80;;;;;;;;;;5092915;28;20071;-71
2022/10/22 10:18:56;;;;;;;14.33;4.20;;;;;;;;;;5093301;28;20055;-70
2022/10/22 10:21:23;;;;;;;18.03;5.10;;;;;;;;;;5091851;28;20430;-68
2022/10/22 10:24:12;;;;;;;11.83;4.00;;;;;;;;;;5093221;28;20127;-69
2022/10/22 10:26:43;;;;;;;12.20;4.30;;;;;;;;;;5082770;28;20082;-70
2022/10/22 10:29:15;;;;;;;12.77;4.43;;;;;;;;;;5093346;28;20086;-71
2022/10/22 10:31:44;;;;;;;14.70;4.43;;;;;;;;;;5093049;28;20048;-70
2022/10/22 10:34:10;;;;;;;11.87;4.30;;;;;;;;;;5092007;28;20527;-70
2022/10/22 10:36:44;;;;;;;15.23;4.10;;;;;;;;;;5092760;28;20582;-67
2022/10/22 10:39:10;;;;;;;11.30;4.37;;;;;;;;;;5093018;28;20492;-74
2022/10/22 10:41:42;;;;;;;15.97;5.60;;;;;;;;;;5092862;28;20052;-71
2022/10/22 10:44:27;;;;;;;13.43;4.60;;;;;;;;;;5093087;28;20069;-70
2022/10/22 10:46:53;;;;;;;18.58;7.13;;;;;;;;;;5092955;28;20055;-70
2022/10/22 10:49:32;;;;;;;14.10;5.97;;;;;;;;;;5092735;28;20040;-71
2022/10/22 10:52:13;;;;;;;16.13;6.13;;;;;;;;;;5092952;28;20048;-71
2022/10/22 10:54:54;;;;;;;16.63;6.37;;;;;;;;;;5092655;28;20108;-71
2022/10/22 10:57:36;;;;;;;19.73;5.83;;;;;;;;;;5092709;28;20094;-71
2022/10/22 11:00:06;;;;;;;16.00;6.17;;;;;;;;;;5092818;28;20110;-70
2022/10/22 11:02:42;;;;;;;20.83;6.67;;;;;;;;;;5092670;28;20396;-71
2022/10/22 11:05:27;;;;;;;17.53;6.87;;;;;;;;;;5092836;28;20056;-71
2022/10/22 11:08:28;;;;;;;12.40;5.50;;;;;;;;;;5092781;28;20086;-71
2022/10/22 11:10:59;;;;;;;16.20;6.87;;;;;;;;;;5070681;28;20127;-73
2022/10/22 11:13:38;;;;;;;16.77;7.33;;;;;;;;;;5087810;28;20461;-70
2022/10/22 11:16:11;;;;;;;15.70;7.70;;;;;;;;;;5096926;28;20055;-69
2022/10/22 11:18:47;;;;;;;22.77;7.93;;;;;;;;;;5096139;28;20080;-70
2022/10/22 11:21:20;;;;;;;18.73;8.13;;;;;;;;;;5096693;28;20055;-70
2022/10/22 11:24:13;;;;;;;17.63;7.93;;;;;;;;;;5096601;28;20040;-71
2022/10/22 11:26:48;;;;;;;17.33;7.27;;;;;;;;;;5095158;28;20163;-71
2022/10/22 11:29:21;;;;;;;17.83;7.80;;;;;;;;;;5096631;28;20050;-71
2022/10/22 11:31:48;;;;;;;16.33;6.53;;;15.40;99.90;;;;;;5096611;28;20373;-71
2022/10/22 11:34:18;;;;;;;19.03;7.60;;;15.40;99.90;;;;;;5096404;28;20472;-71
2022/10/22 11:36:45;;;;;;;13.40;6.30;;;15.50;99.90;;;;;;5096139;28;20044;-71
2022/10/22 11:39:38;;;;;;;17.70;6.30;;;15.50;99.90;;;;;;5096273;28;20080;-68
2022/10/22 11:42:08;;;;;;;18.33;7.17;;;15.60;99.90;;;;;;5096143;28;20071;-71
2022/10/22 11:44:45;;;;;;;20.93;6.57;;;15.70;99.90;;;;;;5095340;28;20036;-72
2022/10/22 11:47:25;;;;;;;16.53;5.73;;;15.80;99.90;;;;;;5095813;28;21306;-75
2022/10/22 11:49:57;;;;;;;15.37;5.57;;;15.80;99.90;;;;;;5093886;28;20090;-76
2022/10/22 11:52:25;;;;;;;16.97;6.03;;;15.90;99.90;;;;;;5111299;27;20052;-70
2022/10/22 11:55:01;;;;;;;13.77;5.00;;;15.90;99.90;;;;;;5108478;28;20049;-70
2022/10/22 11:57:36;;;;;;;14.13;4.60;;;15.90;99.90;;;;;;5073673;28;20353;-74
2022/10/22 12:00:10;;;;;;;11.10;4.10;;;16.00;99.90;;;;;;5086060;28;20547;-73
2022/10/22 12:02:45;;;;;;;12.77;4.10;;;16.00;99.90;;;;;;5085325;28;20059;-75
2022/10/22 12:05:21;;;;;;;12.60;4.10;;;15.90;99.90;;;;;;5073242;28;20055;-71
2022/10/22 12:07:57;;;;;;;14.97;3.63;;;15.90;99.90;;;;;;5085686;28;20252;-71
2022/10/22 12:10:33;;;;;;;10.37;3.73;;;15.80;99.90;;;;;;5088803;28;20131;-72
2022/10/22 12:13:23;;;;;;;17.43;3.70;;;15.80;99.90;;;;;;5084752;28;20056;-72
2022/10/22 12:15:54;;;;;;;15.47;4.03;;;15.80;99.90;;;;;;5087421;28;20544;-71
2022/10/22 12:18:24;;;;;;;11.60;3.60;;;15.70;99.90;;;;;;5085094;28;20125;-74
2022/10/22 12:20:54;;;;;;;16.47;4.27;;;15.70;99.90;;;;;;5089879;28;20056;-77
2022/10/22 12:23:28;;;;;;;15.37;4.00;;;15.80;99.90;;;;;;5081708;28;20044;-72
2022/10/22 12:25:54;;;;;;;12.43;3.80;;;;;;;;;;5088967;28;20048;-70
2022/10/22 12:28:20;;;;;;;16.23;4.50;;;;;;;;;;5085405;28;20128;-72
2022/10/22 12:30:46;;;;;;;14.13;4.03;;;;;;;;;;5088379;28;20059;-72
2022/10/22 12:33:22;;;;;;;14.63;3.77;;;;;;;;;;5084634;28;20280;-75
2022/10/22 12:35:51;;;;;;;17.13;3.33;;;16.10;99.90;;;;;;5068326;28;20578;-74
2022/10/22 12:38:20;;;;;;;15.00;3.57;;;16.20;99.90;;;;;;5087370;28;20500;-71
2022/10/22 12:40:47;;;;;;;7.57;2.73;;;16.20;99.90;;;;;;5084199;28;20059;-71
2022/10/22 12:43:18;;;;;;;11.73;3.30;;;16.20;99.90;;;;;;5087045;28;20507;-71
2022/10/22 12:45:47;;;;;;;9.20;2.77;;;16.30;99.90;;;;;;5086460;28;20046;-70
2022/10/22 12:48:34;;;;;;;11.10;2.97;;;16.30;99.90;;;;;;5089466;28;20451;-74
2022/10/22 12:51:02;;;;;;;10.40;2.40;;;;;;;;;;5089345;28;20587;-72
2022/10/22 12:53:36;;;;;;;8.87;2.23;;;;;;;;;;5087370;28;20044;-73
2022/10/22 12:56:07;;;;;;;12.53;2.83;;;;;;;;;;5087928;28;20488;-70
2022/10/22 12:58:41;;;;;;;7.63;1.97;;;;;;;;;;5087626;28;20048;-69
2022/10/22 13:01:10;;;;;;;12.67;2.33;;;;;;;;;;5089285;28;20125;-70
2022/10/22 13:03:39;;;;;;;8.33;2.30;;;;;;;;;;5087055;28;20365;-75
2022/10/22 13:06:32;;;;;;;11.33;2.70;;;;;;;;;;5088733;28;20052;-74
2022/10/22 13:09:01;;;;;;;14.07;2.87;;;;;;;;;;5086437;28;20044;-71
2022/10/22 13:11:31;;;;;;;11.73;3.17;;;;;;;;;;5088740;28;20052;-70
2022/10/22 13:14:01;;;;;;;11.70;3.47;;;;;;;;;;5086880;28;20112;-75
2022/10/22 13:16:28;;;;;;;10.97;3.00;;;;;;;;;;5088086;28;20101;-76
2022/10/22 13:18:55;;;;;;;10.90;2.30;;;;;;;;;;5088844;28;20063;-71
2022/10/22 13:21:27;;;;;;;10.27;2.70;;;;;;;;;;5088723;28;20094;-71
2022/10/22 13:23:58;;;;;;;12.37;2.50;;;;;;;;;;5086532;28;20059;-71
2022/10/22 13:26:30;;;;;;;12.20;2.63;;;;;;;;;;5087769;28;20083;-70
2022/10/22 13:28:56;;;;;;;13.73;2.47;;;;;;;;;;5087421;28;20060;-69
2022/10/22 13:31:27;;;;;;;8.83;2.17;;;;;;;;;;5087495;28;20106;-74
2022/10/22 13:33:55;;;;;;;13.83;2.70;;;;;;;;;;5081910;28;20063;-72
2022/10/22 13:36:21;;;;;;;12.33;2.30;;;;;;;;;;5087377;28;20598;-72
2022/10/22 13:38:47;;;;;;;16.97;3.70;;;;;;;;;;5083600;28;20051;-70
2022/10/22 13:41:24;;;;;;;13.67;2.40;;;;;;;;;;5087437;28;20388;-71
2022/10/22 13:43:51;;;;;;;14.63;2.20;;;;;;;;;;5080997;28;20503;-72
2022/10/22 13:46:17;;;;;;;14.37;2.73;;;;;;;;;;5085888;28;20075;-74
2022/10/22 13:48:44;;;;;;;10.73;2.40;;;;;;;;;;5085277;28;20120;-70
2022/10/22 13:51:18;;;;;;;14.17;2.63;;;;;;;;;;5084989;28;20070;-71
2022/10/22 13:53:45;;;;;;;12.13;3.27;;;;;;;;;;5083391;28;20404;-71
2022/10/22 13:56:14;;;;;;;12.43;2.60;;;;;;;;;;5082711;28;20043;-76
2022/10/22 13:58:40;;;;;;;11.87;2.20;;;;;;;;;;5086959;28;20048;-76
2022/10/22 14:01:11;;;;;;;10.57;2.40;;;;;;;;;;5082723;28;20044;-72
2022/10/22 14:03:37;;;;;;;9.47;2.67;;;;;;;;;;5085523;28;20040;-73
2022/10/22 14:06:05;;;;;;;11.40;2.73;;;;;;;;;;5081811;28;20145;-74
2022/10/22 14:08:31;;;;;;;10.10;2.63;;;;;;;;;;5085244;28;20044;-72
2022/10/22 14:10:57;;;;;;;9.07;1.80;;;;;;;;;;5083616;28;20072;-71
2022/10/22 14:13:23;;;;;;;11.40;2.13;;;;;;;;;;5083823;28;20730;-71
2022/10/22 14:15:50;;;;;;;9.37;2.30;;;;;;;;;;5084382;28;20046;-70
2022/10/22 14:18:24;;;;;;;10.77;2.23;;;;;;;;;;5081834;28;20067;-74
2022/10/22 14:20:51;;;;;;;10.80;2.60;;;;;;;;;;5087972;28;20056;-75
2022/10/22 14:23:22;;;;;;;8.43;2.00;;;;;;;;;;5086249;28;20055;-70